Terminal Aerodrome Forecast
Issued by NWS

Home | Current Version | Previous Version | Text Only | Print | Product List | Glossary On
Versions: 1 2 3 4 5 6 7 8 9 10 11 12 13 14 15
590
FTUS45 KABQ 241134
TAFROW
TAF
KROW 241134Z 2412/2512 25016G26KT P6SM SKC
     FM241400 28025G35KT P6SM FEW070 SCT150
     FM241700 31028G40KT P6SM FEW080
     FM242200 33020G28KT P6SM FEW100
     FM250100 01011KT P6SM SKC
     FM250400 VRB05KT P6SM SKC=

USA.gov is the U.S. government's official web portal to all federal, state and local government web resources and services.